Jolon, CA (93928)

3:03 AM PDT on August 29, 2014 (GMT -0700)
Ranchos Del Lago | Change Station
CLOSE
Current Station
Personal Weather Station
Location: Lake Nacimiento, CA
Elevation: 1000 ft
Nearby Weather Stations

Elev 1000 ft 35.75 °N, 121.02 °W | Updated 18 seconds ago

Partly Cloudy
Partly Cloudy
57.7 °F
Feels Like 57.7 °F
N
0.0
Wind Variable Wind from SSE
Gusts 0.0 mph

Today
High -- | Low -- °F
--% Chance of Precip.
Yesterday
High -- | Low -- °F
Precip. -- in
6:33 AM 7:35 PM
Waxing Crescent, 13% visible
Pressure 29.93 in
Visibility 10.0 miles
Clouds Few 500 ft
Dew Point 43 °F
Humidity 57%
Rainfall 0.00 in
Snow Depth Not available.
UV 0 out of 12
Pollen 9.10 out of 12
Air Quality Not available.
Flu Activity Not available.
METAR KPRB 290953Z AUTO 00000KT 10SM FEW005 15/12 A2995 RMK AO2 SLP133 T01500122

More Conditions Fewer Conditions

Pressure 29.93 in
Visibility 10.0 miles
Clouds Few 500 ft
Dew Point 43 °F
Humidity 57%
Rainfall 0.00 in
Snow Depth Not available.
UV 0 out of 12
Pollen 9.10 out of 12
Air Quality Not available.
Flu Activity Not available.
METAR KPRB 290953Z AUTO 00000KT 10SM FEW005 15/12 A2995 RMK AO2 SLP133 T01500122

More Conditions Fewer Conditions

10-Day Weather Forecast

Almanac

Astronomy

Aug. 29, 2014 Rise Set
Actual Time 6:33 AM PDT 7:35 PM PDT
Civil Twilight 6:07 AM PDT 8:02 PM PDT
Nautical Twilight 5:36 AM PDT 8:33 PM PDT
Astronomical Twilight 5:03 AM PDT 9:05 PM PDT
Moon 10:19 AM PDT 9:45 PM PDT
Length of Visible Light 13h 54m
Length of Day
13h 01m
Tomorrow will be 2m 9s shorter.
Waxing Crescent, 13% of the Moon is Illuminated
Today
Waxing Crescent
Sep 2
First Quarter
Sep 8
Full
Sep 15
Last Quarter
Sep 24
New

Today's Extremes

State Highs State Lows

Community

WunderPhotos

Upload Photos

1,748,209 photos uploaded!

Nearby

Snow Depth

Station Depth Elevation
Leavitt Lake 0 in 9400 ft
Leavitt Meadows 1 in 7200 ft
Blue Lakes 0 in 8000 ft
Forestdale Creek 0 in 8029 ft
Monitor Pass 0 in 8350 ft

Earthquake Activity

City Distance Mag. Time & Date
Soledad, California 40 miles 2.6 12:15 PM PDT
2014-08-26
Minimum magnitude displayed is 2.5.

Coastal Water Temperatures

Place Temperature
Monterey, CA 64.9 °F
Port San Luis, CA 63.0 °F

Nearby Weather Stations